sensor_id;sensor_type;location;lat;lon;timestamp;temperature;humidity
16700;DHT22;8466;52.286;21.124;2023-02-11T00:01:53;2.50;99.90
16700;DHT22;8466;52.286;21.124;2023-02-11T00:04:21;2.50;99.90
16700;DHT22;8466;52.286;21.124;2023-02-11T00:06:50;2.60;99.90
16700;DHT22;8466;52.286;21.124;2023-02-11T00:09:19;2.60;99.90
16700;DHT22;8466;52.286;21.124;2023-02-11T00:11:49;2.60;99.90
16700;DHT22;8466;52.286;21.124;2023-02-11T00:14:19;2.70;99.90
16700;DHT22;8466;52.286;21.124;2023-02-11T00:16:47;2.70;99.90
16700;DHT22;8466;52.286;21.124;2023-02-11T00:19:17;2.60;99.90
16700;DHT22;8466;52.286;21.124;2023-02-11T00:21:46;2.70;99.90
16700;DHT22;8466;52.286;21.124;2023-02-11T00:24:15;2.70;99.90
16700;DHT22;8466;52.286;21.124;2023-02-11T00:26:44;2.60;99.90
16700;DHT22;8466;52.286;21.124;2023-02-11T00:29:14;2.70;99.90
16700;DHT22;8466;52.286;21.124;2023-02-11T00:31:43;2.70;99.90
16700;DHT22;8466;52.286;21.124;2023-02-11T00:34:13;2.70;99.90
16700;DHT22;8466;52.286;21.124;2023-02-11T00:36:41;2.70;99.90
16700;DHT22;8466;52.286;21.124;2023-02-11T00:39:10;2.80;99.90
16700;DHT22;8466;52.286;21.124;2023-02-11T00:41:39;2.80;99.90
16700;DHT22;8466;52.286;21.124;2023-02-11T00:44:08;2.80;99.90
16700;DHT22;8466;52.286;21.124;2023-02-11T00:46:38;2.80;99.90
16700;DHT22;8466;52.286;21.124;2023-02-11T00:49:06;2.80;99.90
16700;DHT22;8466;52.286;21.124;2023-02-11T00:51:35;2.80;99.90
16700;DHT22;8466;52.286;21.124;2023-02-11T00:54:04;2.90;99.90
16700;DHT22;8466;52.286;21.124;2023-02-11T00:56:34;2.80;99.90
16700;DHT22;8466;52.286;21.124;2023-02-11T00:59:05;2.80;99.90
16700;DHT22;8466;52.286;21.124;2023-02-11T01:01:36;2.80;99.90
16700;DHT22;8466;52.286;21.124;2023-02-11T01:04:08;2.80;99.90
16700;DHT22;8466;52.286;21.124;2023-02-11T01:06:41;2.90;99.90
16700;DHT22;8466;52.286;21.124;2023-02-11T01:09:09;2.90;99.90
16700;DHT22;8466;52.286;21.124;2023-02-11T01:11:38;2.90;99.90
16700;DHT22;8466;52.286;21.124;2023-02-11T01:14:07;2.90;99.90
16700;DHT22;8466;52.286;21.124;2023-02-11T01:16:38;2.90;99.90
16700;DHT22;8466;52.286;21.124;2023-02-11T01:19:08;2.90;99.90
16700;DHT22;8466;52.286;21.124;2023-02-11T01:21:36;2.90;99.90
16700;DHT22;8466;52.286;21.124;2023-02-11T01:24:05;2.90;99.90
16700;DHT22;8466;52.286;21.124;2023-02-11T01:26:34;2.90;99.90
16700;DHT22;8466;52.286;21.124;2023-02-11T01:29:03;2.90;99.90
16700;DHT22;8466;52.286;21.124;2023-02-11T01:31:31;2.90;99.90
16700;DHT22;8466;52.286;21.124;2023-02-11T01:34:02;2.90;99.90
16700;DHT22;8466;52.286;21.124;2023-02-11T01:36:32;2.90;99.90
16700;DHT22;8466;52.286;21.124;2023-02-11T01:39:03;2.90;99.90
16700;DHT22;8466;52.286;21.124;2023-02-11T01:41:36;2.80;99.90
16700;DHT22;8466;52.286;21.124;2023-02-11T01:44:25;2.80;99.90
16700;DHT22;8466;52.286;21.124;2023-02-11T01:46:55;2.90;99.90
16700;DHT22;8466;52.286;21.124;2023-02-11T01:49:27;2.80;99.90
16700;DHT22;8466;52.286;21.124;2023-02-11T01:52:04;2.90;99.90
16700;DHT22;8466;52.286;21.124;2023-02-11T01:54:41;2.90;99.90
16700;DHT22;8466;52.286;21.124;2023-02-11T01:57:31;2.80;99.90
16700;DHT22;8466;52.286;21.124;2023-02-11T02:00:10;2.80;99.90
16700;DHT22;8466;52.286;21.124;2023-02-11T02:02:45;2.80;99.90
16700;DHT22;8466;52.286;21.124;2023-02-11T02:05:31;2.80;99.90
16700;DHT22;8466;52.286;21.124;2023-02-11T02:08:05;2.80;99.90
16700;DHT22;8466;52.286;21.124;2023-02-11T02:10:38;2.80;99.90
16700;DHT22;8466;52.286;21.124;2023-02-11T02:13:08;2.50;99.90
16700;DHT22;8466;52.286;21.124;2023-02-11T02:15:39;2.80;99.90
16700;DHT22;8466;52.286;21.124;2023-02-11T02:18:21;2.80;99.90
16700;DHT22;8466;52.286;21.124;2023-02-11T02:21:29;2.80;99.90
16700;DHT22;8466;52.286;21.124;2023-02-11T02:27:36;2.80;99.90
16700;DHT22;8466;52.286;21.124;2023-02-11T02:30:40;2.70;99.90
16700;DHT22;8466;52.286;21.124;2023-02-11T02:36:17;2.70;99.90
16700;DHT22;8466;52.286;21.124;2023-02-11T02:38:52;2.60;99.90
16700;DHT22;8466;52.286;21.124;2023-02-11T02:41:23;2.60;99.90
16700;DHT22;8466;52.286;21.124;2023-02-11T02:43:54;2.60;99.90
16700;DHT22;8466;52.286;21.124;2023-02-11T02:46:25;2.60;99.90
16700;DHT22;8466;52.286;21.124;2023-02-11T02:48:55;2.50;99.90
16700;DHT22;8466;52.286;21.124;2023-02-11T02:51:44;2.50;99.90
16700;DHT22;8466;52.286;21.124;2023-02-11T02:54:43;2.60;99.90
16700;DHT22;8466;52.286;21.124;2023-02-11T02:57:26;2.60;99.90
16700;DHT22;8466;52.286;21.124;2023-02-11T03:00:10;2.60;99.90
16700;DHT22;8466;52.286;21.124;2023-02-11T03:02:50;2.70;99.90
16700;DHT22;8466;52.286;21.124;2023-02-11T03:05:24;2.70;99.90
16700;DHT22;8466;52.286;21.124;2023-02-11T03:08:01;2.70;99.90
16700;DHT22;8466;52.286;21.124;2023-02-11T03:10:36;2.70;99.90
16700;DHT22;8466;52.286;21.124;2023-02-11T03:13:06;2.70;99.90
16700;DHT22;8466;52.286;21.124;2023-02-11T03:15:38;2.70;99.90
16700;DHT22;8466;52.286;21.124;2023-02-11T03:18:11;2.70;99.90
16700;DHT22;8466;52.286;21.124;2023-02-11T03:20:42;2.80;99.90
16700;DHT22;8466;52.286;21.124;2023-02-11T03:23:17;2.70;99.90
16700;DHT22;8466;52.286;21.124;2023-02-11T03:25:49;2.70;99.90
16700;DHT22;8466;52.286;21.124;2023-02-11T03:28:23;2.70;99.90
16700;DHT22;8466;52.286;21.124;2023-02-11T03:31:01;2.80;99.90
16700;DHT22;8466;52.286;21.124;2023-02-11T03:33:37;2.90;99.90
16700;DHT22;8466;52.286;21.124;2023-02-11T03:36:12;2.80;99.90
16700;DHT22;8466;52.286;21.124;2023-02-11T03:38:47;2.80;99.90
16700;DHT22;8466;52.286;21.124;2023-02-11T03:41:20;2.80;99.90
16700;DHT22;8466;52.286;21.124;2023-02-11T03:43:52;2.80;99.90
16700;DHT22;8466;52.286;21.124;2023-02-11T03:46:27;2.80;99.90
16700;DHT22;8466;52.286;21.124;2023-02-11T03:49:01;2.80;99.90
16700;DHT22;8466;52.286;21.124;2023-02-11T03:51:31;2.70;99.90
16700;DHT22;8466;52.286;21.124;2023-02-11T03:54:04;2.80;99.90
16700;DHT22;8466;52.286;21.124;2023-02-11T03:56:40;2.80;99.90
16700;DHT22;8466;52.286;21.124;2023-02-11T03:59:09;2.80;99.90
16700;DHT22;8466;52.286;21.124;2023-02-11T04:01:38;2.80;99.90
16700;DHT22;8466;52.286;21.124;2023-02-11T04:04:06;2.70;99.90
16700;DHT22;8466;52.286;21.124;2023-02-11T04:06:35;2.70;99.90
16700;DHT22;8466;52.286;21.124;2023-02-11T04:09:05;2.70;99.90
16700;DHT22;8466;52.286;21.124;2023-02-11T04:11:35;2.70;99.90
16700;DHT22;8466;52.286;21.124;2023-02-11T04:14:03;2.60;99.90
16700;DHT22;8466;52.286;21.124;2023-02-11T04:16:32;2.50;99.90
16700;DHT22;8466;52.286;21.124;2023-02-11T04:19:01;2.50;99.90
16700;DHT22;8466;52.286;21.124;2023-02-11T04:21:29;2.40;99.90
16700;DHT22;8466;52.286;21.124;2023-02-11T04:23:58;2.30;99.90
16700;DHT22;8466;52.286;21.124;2023-02-11T04:26:28;2.30;99.90
16700;DHT22;8466;52.286;21.124;2023-02-11T04:28:56;2.40;99.90
16700;DHT22;8466;52.286;21.124;2023-02-11T04:31:25;2.40;99.90
16700;DHT22;8466;52.286;21.124;2023-02-11T04:33:54;2.40;99.90
16700;DHT22;8466;52.286;21.124;2023-02-11T04:36:23;2.40;99.90
16700;DHT22;8466;52.286;21.124;2023-02-11T04:38:52;2.40;99.90
16700;DHT22;8466;52.286;21.124;2023-02-11T04:41:20;2.40;99.90
16700;DHT22;8466;52.286;21.124;2023-02-11T04:43:50;2.40;99.90
16700;DHT22;8466;52.286;21.124;2023-02-11T04:46:19;2.30;99.90
16700;DHT22;8466;52.286;21.124;2023-02-11T04:48:48;2.20;99.90
16700;DHT22;8466;52.286;21.124;2023-02-11T04:51:16;2.10;99.90
16700;DHT22;8466;52.286;21.124;2023-02-11T04:53:45;2.10;99.90
16700;DHT22;8466;52.286;21.124;2023-02-11T04:56:13;2.10;99.90
16700;DHT22;8466;52.286;21.124;2023-02-11T04:58:42;2.10;99.90
16700;DHT22;8466;52.286;21.124;2023-02-11T05:01:13;2.10;99.90
16700;DHT22;8466;52.286;21.124;2023-02-11T05:03:43;2.00;99.90
16700;DHT22;8466;52.286;21.124;2023-02-11T05:06:12;2.00;99.90
16700;DHT22;8466;52.286;21.124;2023-02-11T05:08:40;1.90;99.90
16700;DHT22;8466;52.286;21.124;2023-02-11T05:11:14;1.90;99.90
16700;DHT22;8466;52.286;21.124;2023-02-11T05:13:43;1.90;99.90
16700;DHT22;8466;52.286;21.124;2023-02-11T05:16:16;1.90;99.90
16700;DHT22;8466;52.286;21.124;2023-02-11T05:18:45;1.90;99.90
16700;DHT22;8466;52.286;21.124;2023-02-11T05:21:18;1.80;99.90
16700;DHT22;8466;52.286;21.124;2023-02-11T05:23:47;2.00;99.90
16700;DHT22;8466;52.286;21.124;2023-02-11T05:26:16;2.10;99.90
16700;DHT22;8466;52.286;21.124;2023-02-11T05:28:44;2.30;99.90
16700;DHT22;8466;52.286;21.124;2023-02-11T05:31:14;2.30;99.90
16700;DHT22;8466;52.286;21.124;2023-02-11T05:33:43;2.40;99.90
16700;DHT22;8466;52.286;21.124;2023-02-11T05:36:12;2.50;99.90
16700;DHT22;8466;52.286;21.124;2023-02-11T05:38:42;2.50;99.90
16700;DHT22;8466;52.286;21.124;2023-02-11T05:41:12;2.50;99.90
16700;DHT22;8466;52.286;21.124;2023-02-11T05:43:40;2.60;99.90
16700;DHT22;8466;52.286;21.124;2023-02-11T05:46:09;2.60;99.90
16700;DHT22;8466;52.286;21.124;2023-02-11T05:48:39;2.60;99.90
16700;DHT22;8466;52.286;21.124;2023-02-11T05:51:08;2.70;99.90
16700;DHT22;8466;52.286;21.124;2023-02-11T05:53:36;2.70;99.90
16700;DHT22;8466;52.286;21.124;2023-02-11T05:56:05;2.70;99.90
16700;DHT22;8466;52.286;21.124;2023-02-11T05:58:34;2.70;99.90
16700;DHT22;8466;52.286;21.124;2023-02-11T06:01:02;2.70;99.90
16700;DHT22;8466;52.286;21.124;2023-02-11T06:03:31;2.70;99.90
16700;DHT22;8466;52.286;21.124;2023-02-11T06:06:01;2.70;99.90
16700;DHT22;8466;52.286;21.124;2023-02-11T06:08:30;2.70;99.90
16700;DHT22;8466;52.286;21.124;2023-02-11T06:10:58;2.80;99.90
16700;DHT22;8466;52.286;21.124;2023-02-11T06:13:27;2.80;99.90
16700;DHT22;8466;52.286;21.124;2023-02-11T06:15:56;2.90;99.90
16700;DHT22;8466;52.286;21.124;2023-02-11T06:18:25;2.90;99.90
16700;DHT22;8466;52.286;21.124;2023-02-11T06:20:54;2.80;99.90
16700;DHT22;8466;52.286;21.124;2023-02-11T06:23:24;2.90;99.90
16700;DHT22;8466;52.286;21.124;2023-02-11T06:26:01;2.90;99.90
16700;DHT22;8466;52.286;21.124;2023-02-11T06:28:30;2.90;99.90
16700;DHT22;8466;52.286;21.124;2023-02-11T06:31:03;2.90;99.90
16700;DHT22;8466;52.286;21.124;2023-02-11T06:33:33;3.00;99.90
16700;DHT22;8466;52.286;21.124;2023-02-11T06:36:03;3.00;99.90
16700;DHT22;8466;52.286;21.124;2023-02-11T06:38:33;3.00;99.90
16700;DHT22;8466;52.286;21.124;2023-02-11T06:41:02;2.90;99.90
16700;DHT22;8466;52.286;21.124;2023-02-11T06:43:30;3.00;99.90
16700;DHT22;8466;52.286;21.124;2023-02-11T06:45:59;3.00;99.90
16700;DHT22;8466;52.286;21.124;2023-02-11T06:48:28;3.00;99.90
16700;DHT22;8466;52.286;21.124;2023-02-11T06:51:00;3.00;99.90
16700;DHT22;8466;52.286;21.124;2023-02-11T06:53:29;3.10;99.90
16700;DHT22;8466;52.286;21.124;2023-02-11T06:56:03;3.10;99.90
16700;DHT22;8466;52.286;21.124;2023-02-11T06:58:31;3.20;99.90
16700;DHT22;8466;52.286;21.124;2023-02-11T07:01:03;3.20;99.90
16700;DHT22;8466;52.286;21.124;2023-02-11T07:03:33;3.30;99.90
16700;DHT22;8466;52.286;21.124;2023-02-11T07:06:02;3.40;99.90
16700;DHT22;8466;52.286;21.124;2023-02-11T07:08:32;3.50;99.90
16700;DHT22;8466;52.286;21.124;2023-02-11T07:11:08;3.50;99.90
16700;DHT22;8466;52.286;21.124;2023-02-11T07:13:37;3.50;99.90
16700;DHT22;8466;52.286;21.124;2023-02-11T07:16:06;3.40;99.90
16700;DHT22;8466;52.286;21.124;2023-02-11T07:18:35;3.40;99.90
16700;DHT22;8466;52.286;21.124;2023-02-11T07:21:04;3.40;99.90
16700;DHT22;8466;52.286;21.124;2023-02-11T07:23:33;3.30;99.90
16700;DHT22;8466;52.286;21.124;2023-02-11T07:26:05;3.30;99.90
16700;DHT22;8466;52.286;21.124;2023-02-11T07:28:35;3.30;99.90
16700;DHT22;8466;52.286;21.124;2023-02-11T07:31:06;3.20;99.90
16700;DHT22;8466;52.286;21.124;2023-02-11T07:33:42;3.20;99.90
16700;DHT22;8466;52.286;21.124;2023-02-11T07:36:13;3.20;99.90
16700;DHT22;8466;52.286;21.124;2023-02-11T07:38:42;3.10;99.90
16700;DHT22;8466;52.286;21.124;2023-02-11T07:41:14;3.10;99.90
16700;DHT22;8466;52.286;21.124;2023-02-11T07:43:43;3.10;99.90
16700;DHT22;8466;52.286;21.124;2023-02-11T07:46:14;3.10;99.90
16700;DHT22;8466;52.286;21.124;2023-02-11T07:48:43;3.10;99.90
16700;DHT22;8466;52.286;21.124;2023-02-11T07:51:13;3.00;99.90
16700;DHT22;8466;52.286;21.124;2023-02-11T07:53:42;3.00;99.90
16700;DHT22;8466;52.286;21.124;2023-02-11T07:56:14;3.10;99.90
16700;DHT22;8466;52.286;21.124;2023-02-11T07:58:42;3.00;99.90
16700;DHT22;8466;52.286;21.124;2023-02-11T08:01:13;3.00;99.90
16700;DHT22;8466;52.286;21.124;2023-02-11T08:03:43;3.00;99.90
16700;DHT22;8466;52.286;21.124;2023-02-11T08:06:12;3.00;99.90
16700;DHT22;8466;52.286;21.124;2023-02-11T08:08:41;3.00;99.90
16700;DHT22;8466;52.286;21.124;2023-02-11T08:11:14;2.90;99.90
16700;DHT22;8466;52.286;21.124;2023-02-11T08:13:42;3.00;99.90
16700;DHT22;8466;52.286;21.124;2023-02-11T08:16:18;3.00;99.90
16700;DHT22;8466;52.286;21.124;2023-02-11T08:18:47;3.00;99.90
16700;DHT22;8466;52.286;21.124;2023-02-11T08:21:17;3.00;99.90
16700;DHT22;8466;52.286;21.124;2023-02-11T08:23:46;3.00;99.90
16700;DHT22;8466;52.286;21.124;2023-02-11T08:26:19;3.00;99.90
16700;DHT22;8466;52.286;21.124;2023-02-11T08:28:49;3.00;99.90
16700;DHT22;8466;52.286;21.124;2023-02-11T08:31:19;3.10;99.90
16700;DHT22;8466;52.286;21.124;2023-02-11T08:33:48;3.10;99.90
16700;DHT22;8466;52.286;21.124;2023-02-11T08:36:19;3.10;99.90
16700;DHT22;8466;52.286;21.124;2023-02-11T08:38:48;3.10;99.90
16700;DHT22;8466;52.286;21.124;2023-02-11T08:41:18;3.10;99.90
16700;DHT22;8466;52.286;21.124;2023-02-11T08:43:47;3.10;99.90
16700;DHT22;8466;52.286;21.124;2023-02-11T08:46:18;3.10;99.90
16700;DHT22;8466;52.286;21.124;2023-02-11T08:48:47;3.20;99.90
16700;DHT22;8466;52.286;21.124;2023-02-11T08:51:17;3.20;99.90
16700;DHT22;8466;52.286;21.124;2023-02-11T08:53:46;3.20;99.90
16700;DHT22;8466;52.286;21.124;2023-02-11T08:56:16;3.30;99.90
16700;DHT22;8466;52.286;21.124;2023-02-11T08:58:47;3.40;99.90
16700;DHT22;8466;52.286;21.124;2023-02-11T09:01:18;3.30;99.90
16700;DHT22;8466;52.286;21.124;2023-02-11T09:03:49;3.30;99.90
16700;DHT22;8466;52.286;21.124;2023-02-11T09:06:18;3.40;99.90
16700;DHT22;8466;52.286;21.124;2023-02-11T09:08:51;3.50;99.90
16700;DHT22;8466;52.286;21.124;2023-02-11T09:11:25;3.50;99.90
16700;DHT22;8466;52.286;21.124;2023-02-11T09:13:57;3.50;99.90
16700;DHT22;8466;52.286;21.124;2023-02-11T09:16:28;3.50;99.90
16700;DHT22;8466;52.286;21.124;2023-02-11T09:18:58;3.60;99.90
16700;DHT22;8466;52.286;21.124;2023-02-11T09:21:28;3.60;99.90
16700;DHT22;8466;52.286;21.124;2023-02-11T09:23:56;3.70;99.90
16700;DHT22;8466;52.286;21.124;2023-02-11T09:26:27;3.60;99.90
16700;DHT22;8466;52.286;21.124;2023-02-11T09:28:57;3.60;99.90
16700;DHT22;8466;52.286;21.124;2023-02-11T09:31:28;3.50;99.90
16700;DHT22;8466;52.286;21.124;2023-02-11T09:34:00;3.50;99.90
16700;DHT22;8466;52.286;21.124;2023-02-11T09:36:32;3.50;99.90
16700;DHT22;8466;52.286;21.124;2023-02-11T09:39:01;3.50;99.90
16700;DHT22;8466;52.286;21.124;2023-02-11T09:41:47;3.40;99.90
16700;DHT22;8466;52.286;21.124;2023-02-11T09:44:22;3.40;99.90
16700;DHT22;8466;52.286;21.124;2023-02-11T09:46:55;3.40;99.90
16700;DHT22;8466;52.286;21.124;2023-02-11T09:49:29;3.40;99.90
16700;DHT22;8466;52.286;21.124;2023-02-11T09:52:05;3.30;99.90
16700;DHT22;8466;52.286;21.124;2023-02-11T09:54:48;3.30;99.90
16700;DHT22;8466;52.286;21.124;2023-02-11T09:57:20;3.30;99.90
16700;DHT22;8466;52.286;21.124;2023-02-11T09:59:56;3.20;99.90
16700;DHT22;8466;52.286;21.124;2023-02-11T10:02:31;3.20;99.90
16700;DHT22;8466;52.286;21.124;2023-02-11T10:05:34;3.20;99.90
16700;DHT22;8466;52.286;21.124;2023-02-11T10:08:12;3.30;99.90
16700;DHT22;8466;52.286;21.124;2023-02-11T10:10:49;3.30;99.90
16700;DHT22;8466;52.286;21.124;2023-02-11T10:13:36;3.20;99.90
16700;DHT22;8466;52.286;21.124;2023-02-11T10:16:23;3.20;99.90
16700;DHT22;8466;52.286;21.124;2023-02-11T10:19:14;3.10;99.90
16700;DHT22;8466;52.286;21.124;2023-02-11T10:21:52;3.10;99.90
16700;DHT22;8466;52.286;21.124;2023-02-11T10:24:24;3.10;99.90
16700;DHT22;8466;52.286;21.124;2023-02-11T10:27:13;3.00;99.90
16700;DHT22;8466;52.286;21.124;2023-02-11T10:29:50;3.10;99.90
16700;DHT22;8466;52.286;21.124;2023-02-11T10:32:37;3.20;99.90
16700;DHT22;8466;52.286;21.124;2023-02-11T10:35:13;3.20;99.90
16700;DHT22;8466;52.286;21.124;2023-02-11T10:37:44;3.30;99.90
16700;DHT22;8466;52.286;21.124;2023-02-11T10:40:13;3.40;99.90
16700;DHT22;8466;52.286;21.124;2023-02-11T10:42:47;3.30;99.90
16700;DHT22;8466;52.286;21.124;2023-02-11T10:45:21;3.40;99.90
16700;DHT22;8466;52.286;21.124;2023-02-11T10:47:52;3.30;99.90
16700;DHT22;8466;52.286;21.124;2023-02-11T10:50:24;3.30;99.90
16700;DHT22;8466;52.286;21.124;2023-02-11T10:53:11;3.40;99.90
16700;DHT22;8466;52.286;21.124;2023-02-11T10:55:49;3.30;99.90
16700;DHT22;8466;52.286;21.124;2023-02-11T10:58:23;3.40;99.90
16700;DHT22;8466;52.286;21.124;2023-02-11T11:00:54;3.30;99.90
16700;DHT22;8466;52.286;21.124;2023-02-11T11:03:26;3.30;99.90
16700;DHT22;8466;52.286;21.124;2023-02-11T11:05:57;3.40;99.90
16700;DHT22;8466;52.286;21.124;2023-02-11T11:08:38;3.30;99.90
16700;DHT22;8466;52.286;21.124;2023-02-11T11:11:09;3.30;99.90
16700;DHT22;8466;52.286;21.124;2023-02-11T11:13:40;3.30;99.90
16700;DHT22;8466;52.286;21.124;2023-02-11T11:16:23;3.30;99.90
16700;DHT22;8466;52.286;21.124;2023-02-11T11:19:19;3.30;99.90
16700;DHT22;8466;52.286;21.124;2023-02-11T11:21:49;3.30;99.90
16700;DHT22;8466;52.286;21.124;2023-02-11T11:24:21;3.30;99.90
16700;DHT22;8466;52.286;21.124;2023-02-11T11:26:55;3.30;99.90
16700;DHT22;8466;52.286;21.124;2023-02-11T11:29:31;3.30;99.90
16700;DHT22;8466;52.286;21.124;2023-02-11T11:32:02;3.30;99.90
16700;DHT22;8466;52.286;21.124;2023-02-11T11:34:36;3.30;99.90
16700;DHT22;8466;52.286;21.124;2023-02-11T11:37:10;3.30;99.90
16700;DHT22;8466;52.286;21.124;2023-02-11T11:39:39;3.20;99.90
16700;DHT22;8466;52.286;21.124;2023-02-11T11:42:24;3.20;99.90
16700;DHT22;8466;52.286;21.124;2023-02-11T11:44:57;3.20;99.90
16700;DHT22;8466;52.286;21.124;2023-02-11T11:47:31;3.30;99.90
16700;DHT22;8466;52.286;21.124;2023-02-11T11:50:22;3.30;99.90
16700;DHT22;8466;52.286;21.124;2023-02-11T11:52:59;3.30;99.90
16700;DHT22;8466;52.286;21.124;2023-02-11T11:55:33;3.30;99.90
16700;DHT22;8466;52.286;21.124;2023-02-11T11:58:04;3.30;99.90
16700;DHT22;8466;52.286;21.124;2023-02-11T12:00:36;3.30;99.90
16700;DHT22;8466;52.286;21.124;2023-02-11T12:03:51;3.30;99.90
16700;DHT22;8466;52.286;21.124;2023-02-11T12:06:35;3.30;99.90
16700;DHT22;8466;52.286;21.124;2023-02-11T12:09:15;3.30;99.90
16700;DHT22;8466;52.286;21.124;2023-02-11T12:12:01;3.30;99.90
16700;DHT22;8466;52.286;21.124;2023-02-11T12:14:41;3.40;99.90
16700;DHT22;8466;52.286;21.124;2023-02-11T12:17:17;3.30;99.90
16700;DHT22;8466;52.286;21.124;2023-02-11T12:20:15;3.40;99.90
16700;DHT22;8466;52.286;21.124;2023-02-11T12:22:57;3.40;99.90
16700;DHT22;8466;52.286;21.124;2023-02-11T12:25:36;3.40;99.90
16700;DHT22;8466;52.286;21.124;2023-02-11T12:28:22;3.40;99.90
16700;DHT22;8466;52.286;21.124;2023-02-11T12:31:07;3.50;99.90
16700;DHT22;8466;52.286;21.124;2023-02-11T12:34:12;3.50;99.90
16700;DHT22;8466;52.286;21.124;2023-02-11T12:37:02;3.50;99.90
16700;DHT22;8466;52.286;21.124;2023-02-11T12:39:42;3.50;99.90
16700;DHT22;8466;52.286;21.124;2023-02-11T12:42:43;3.60;99.90
16700;DHT22;8466;52.286;21.124;2023-02-11T12:45:48;3.50;99.90
16700;DHT22;8466;52.286;21.124;2023-02-11T12:48:33;3.60;99.90
16700;DHT22;8466;52.286;21.124;2023-02-11T12:51:10;3.60;99.90
16700;DHT22;8466;52.286;21.124;2023-02-11T12:54:05;3.70;99.90
16700;DHT22;8466;52.286;21.124;2023-02-11T12:56:44;3.70;99.90
16700;DHT22;8466;52.286;21.124;2023-02-11T12:59:17;3.70;99.90
16700;DHT22;8466;52.286;21.124;2023-02-11T13:01:49;3.70;99.90
16700;DHT22;8466;52.286;21.124;2023-02-11T13:04:23;3.80;99.90
16700;DHT22;8466;52.286;21.124;2023-02-11T13:06:56;3.80;99.90
16700;DHT22;8466;52.286;21.124;2023-02-11T13:09:31;3.80;99.90
16700;DHT22;8466;52.286;21.124;2023-02-11T13:12:05;3.80;99.90
16700;DHT22;8466;52.286;21.124;2023-02-11T13:14:51;3.80;99.90
16700;DHT22;8466;52.286;21.124;2023-02-11T13:17:26;3.90;99.90
16700;DHT22;8466;52.286;21.124;2023-02-11T13:19:59;3.90;99.90
16700;DHT22;8466;52.286;21.124;2023-02-11T13:22:32;4.00;99.90
16700;DHT22;8466;52.286;21.124;2023-02-11T13:25:04;4.00;99.90
16700;DHT22;8466;52.286;21.124;2023-02-11T13:27:42;3.90;99.90
16700;DHT22;8466;52.286;21.124;2023-02-11T13:30:23;4.00;99.90
16700;DHT22;8466;52.286;21.124;2023-02-11T13:33:16;4.00;99.90
16700;DHT22;8466;52.286;21.124;2023-02-11T13:35:49;4.00;99.90
16700;DHT22;8466;52.286;21.124;2023-02-11T13:38:37;4.00;99.90
16700;DHT22;8466;52.286;21.124;2023-02-11T13:41:15;4.00;99.90
16700;DHT22;8466;52.286;21.124;2023-02-11T13:43:57;4.00;99.90
16700;DHT22;8466;52.286;21.124;2023-02-11T13:46:28;4.10;99.90
16700;DHT22;8466;52.286;21.124;2023-02-11T13:49:18;4.10;99.90
16700;DHT22;8466;52.286;21.124;2023-02-11T13:51:47;4.10;99.90
16700;DHT22;8466;52.286;21.124;2023-02-11T13:54:22;4.10;99.90
16700;DHT22;8466;52.286;21.124;2023-02-11T13:57:25;4.10;99.90
16700;DHT22;8466;52.286;21.124;2023-02-11T13:59:59;4.10;99.90
16700;DHT22;8466;52.286;21.124;2023-02-11T14:02:31;4.10;99.90
16700;DHT22;8466;52.286;21.124;2023-02-11T14:05:29;4.10;99.90
16700;DHT22;8466;52.286;21.124;2023-02-11T14:08:21;4.20;99.90
16700;DHT22;8466;52.286;21.124;2023-02-11T14:14:13;4.20;99.90
16700;DHT22;8466;52.286;21.124;2023-02-11T14:17:17;4.20;99.90
16700;DHT22;8466;52.286;21.124;2023-02-11T14:19:47;4.20;99.90
16700;DHT22;8466;52.286;21.124;2023-02-11T14:22:20;4.20;99.90
16700;DHT22;8466;52.286;21.124;2023-02-11T14:24:52;4.20;99.90
16700;DHT22;8466;52.286;21.124;2023-02-11T14:27:30;4.20;99.90
16700;DHT22;8466;52.286;21.124;2023-02-11T14:30:25;4.20;99.90
16700;DHT22;8466;52.286;21.124;2023-02-11T14:33:26;4.20;99.90
16700;DHT22;8466;52.286;21.124;2023-02-11T14:36:13;4.20;99.90
16700;DHT22;8466;52.286;21.124;2023-02-11T14:38:51;4.30;99.90
16700;DHT22;8466;52.286;21.124;2023-02-11T14:41:24;4.30;99.90
16700;DHT22;8466;52.286;21.124;2023-02-11T14:43:56;4.30;99.90
16700;DHT22;8466;52.286;21.124;2023-02-11T14:46:27;4.30;99.90
16700;DHT22;8466;52.286;21.124;2023-02-11T14:49:01;4.40;99.90
16700;DHT22;8466;52.286;21.124;2023-02-11T14:51:34;4.40;99.90
16700;DHT22;8466;52.286;21.124;2023-02-11T14:54:10;4.40;99.90
16700;DHT22;8466;52.286;21.124;2023-02-11T14:56:41;4.40;99.90
16700;DHT22;8466;52.286;21.124;2023-02-11T14:59:16;4.40;99.90
16700;DHT22;8466;52.286;21.124;2023-02-11T15:01:48;4.40;99.90
16700;DHT22;8466;52.286;21.124;2023-02-11T15:04:26;4.50;99.90
16700;DHT22;8466;52.286;21.124;2023-02-11T15:06:56;4.50;99.90
16700;DHT22;8466;52.286;21.124;2023-02-11T15:09:32;4.50;99.90
16700;DHT22;8466;52.286;21.124;2023-02-11T15:12:02;4.50;99.90
16700;DHT22;8466;52.286;21.124;2023-02-11T15:14:32;4.50;99.90
16700;DHT22;8466;52.286;21.124;2023-02-11T15:17:05;4.50;99.90
16700;DHT22;8466;52.286;21.124;2023-02-11T15:19:38;4.50;99.90
16700;DHT22;8466;52.286;21.124;2023-02-11T15:22:15;4.50;99.90
16700;DHT22;8466;52.286;21.124;2023-02-11T15:24:58;4.50;99.90
16700;DHT22;8466;52.286;21.124;2023-02-11T15:27:27;4.50;99.90
16700;DHT22;8466;52.286;21.124;2023-02-11T15:30:27;4.50;99.90
16700;DHT22;8466;52.286;21.124;2023-02-11T15:32:57;4.50;99.90
16700;DHT22;8466;52.286;21.124;2023-02-11T15:35:30;4.40;99.90
16700;DHT22;8466;52.286;21.124;2023-02-11T15:37:59;4.50;99.90
16700;DHT22;8466;52.286;21.124;2023-02-11T15:40:29;4.50;99.90
16700;DHT22;8466;52.286;21.124;2023-02-11T15:43:01;4.50;99.90
16700;DHT22;8466;52.286;21.124;2023-02-11T15:45:31;4.50;99.90
16700;DHT22;8466;52.286;21.124;2023-02-11T15:48:09;4.60;99.90
16700;DHT22;8466;52.286;21.124;2023-02-11T15:50:42;4.60;99.90
16700;DHT22;8466;52.286;21.124;2023-02-11T15:53:22;4.60;99.90
16700;DHT22;8466;52.286;21.124;2023-02-11T15:55:56;4.50;99.90
16700;DHT22;8466;52.286;21.124;2023-02-11T15:58:27;4.60;99.90
16700;DHT22;8466;52.286;21.124;2023-02-11T16:00:56;4.60;99.90
16700;DHT22;8466;52.286;21.124;2023-02-11T16:03:27;4.60;99.90
16700;DHT22;8466;52.286;21.124;2023-02-11T16:06:15;4.60;99.90
16700;DHT22;8466;52.286;21.124;2023-02-11T16:08:57;4.70;99.90
16700;DHT22;8466;52.286;21.124;2023-02-11T16:11:27;4.80;99.90
16700;DHT22;8466;52.286;21.124;2023-02-11T16:13:58;4.80;99.90
16700;DHT22;8466;52.286;21.124;2023-02-11T16:16:29;4.80;99.90
16700;DHT22;8466;52.286;21.124;2023-02-11T16:19:00;4.80;99.90
16700;DHT22;8466;52.286;21.124;2023-02-11T16:21:35;4.80;99.90
16700;DHT22;8466;52.286;21.124;2023-02-11T16:24:17;4.90;99.90
16700;DHT22;8466;52.286;21.124;2023-02-11T16:26:50;4.80;99.90
16700;DHT22;8466;52.286;21.124;2023-02-11T16:29:24;4.90;99.90
16700;DHT22;8466;52.286;21.124;2023-02-11T16:32:03;4.90;99.90
16700;DHT22;8466;52.286;21.124;2023-02-11T16:34:32;4.90;99.90
16700;DHT22;8466;52.286;21.124;2023-02-11T16:37:04;5.00;99.90
16700;DHT22;8466;52.286;21.124;2023-02-11T16:39:34;5.00;99.90